Ashley, North Dakota
Current Conditions -  °F | °C
As of 12:15 PM on Wednesday 26 Nov 2014 (Local Time) from K7L2 Reporting Station
Light Snow Light Snow  
Wind Chill:   Ceiling: 2100
Heat Index:   Visibility: 5mi
Dew Point:   Wind: 5mph
Humidity: 85%   Direction: 350°N
Pressure: 30.36"   Gusts: NA
Location:  46.03°N, 99.37°W
Report Text: K7L2 261815Z AUTO 35004KT 5SM -SN FEW002 OVC021 M13/M15 A3036 RMK AO2
Loading
Personal Weather Stations






























Interactive Weather Map New forecast layout! Learn more

10-Day Weather Forecast

Advertisements
Track Severe Weather on mobile